Time;durP1;ratioP1;P1;durP2;ratioP2;P2;SDS_P1;SDS_P2;PMS_P1;PMS_P2;Temp;Humidity;BMP_temperature;BMP_pressure;BME280_temperature;BME280_humidity;BME280_pressure;Samples;Min_cycle;Max_cycle;Signal;HPM_P1;HPM_P2
2021/12/04 00:02:14;;;;;;;;;;;1.10;99.90;;;;;;5096823;28;19912;-85
2021/12/04 00:04:44;;;;;;;;;;;1.40;99.90;;;;;;5096423;28;19946;-84
2021/12/04 00:07:12;;;;;;;;;;;1.40;99.90;;;;;;5095658;28;19952;-84
2021/12/04 00:09:45;;;;;;;;;;;1.50;99.90;;;;;;5095755;28;20341;-84
2021/12/04 00:12:11;;;;;;;;;;;1.50;99.90;;;;;;5095178;28;19924;-81
2021/12/04 00:14:38;;;;;;;;;;;1.50;99.90;;;;;;5089843;28;19925;-83
2021/12/04 00:17:06;;;;;;;;;;;1.00;99.90;;;;;;5091153;28;19938;-82
2021/12/04 00:19:32;;;;;;;;;;;1.50;99.90;;;;;;5090999;28;19925;-82
2021/12/04 00:22:00;;;;;;;;;;;1.60;99.90;;;;;;5088382;28;19971;-82
2021/12/04 00:24:28;;;;;;;;;;;1.50;99.90;;;;;;5090046;28;20015;-79
2021/12/04 00:26:55;;;;;;;;;;;1.60;99.90;;;;;;5092994;28;19974;-81
2021/12/04 00:29:23;;;;;;;;;;;1.60;99.90;;;;;;5091006;28;19984;-82
2021/12/04 00:31:51;;;;;;;;;;;1.50;99.90;;;;;;5090354;28;19924;-82
2021/12/04 00:34:19;;;;;;;;;;;2.90;99.90;;;;;;5091010;28;19955;-82
2021/12/04 00:37:03;;;;;;;;;;;1.40;99.90;;;;;;5093335;28;19935;-81
2021/12/04 00:50:27;;;;;;;;;;;1.50;99.90;;;;;;5088004;28;19967;-77
2021/12/04 00:52:55;;;;;;;;;;;1.60;99.90;;;;;;5088297;28;19958;-79
2021/12/04 00:55:23;;;;;;;;;;;1.60;99.90;;;;;;5089390;28;20007;-78
2021/12/04 00:57:49;;;;;;;;;;;1.80;99.90;;;;;;5087932;28;19924;-78
2021/12/04 01:00:15;;;;;;;;;;;1.40;99.90;;;;;;5086108;28;19929;-78
2021/12/04 01:02:42;;;;;;;;;;;1.70;99.90;;;;;;5090731;28;19924;-79
2021/12/04 01:05:09;;;;;;;;;;;1.60;99.90;;;;;;5091634;28;19925;-77
2021/12/04 01:07:35;;;;;;;;;;;1.70;99.90;;;;;;5091343;28;20082;-78
2021/12/04 01:10:03;;;;;;;;;;;2.40;99.90;;;;;;5083932;28;19939;-78
2021/12/04 01:12:31;;;;;;;;;;;1.60;99.90;;;;;;5092549;28;19924;-77
2021/12/04 01:14:57;;;;;;;;;;;1.70;99.90;;;;;;5090627;28;19924;-78
2021/12/04 01:17:24;;;;;;;;;;;2.20;99.90;;;;;;5090968;28;19925;-78
2021/12/04 01:19:50;;;;;;;;;;;1.70;99.90;;;;;;5088009;28;19924;-78
2021/12/04 01:22:20;;;;;;;;;;;1.70;99.90;;;;;;5082507;28;19951;-78
2021/12/04 01:24:46;;;;;;;;;;;1.70;99.90;;;;;;5081400;28;19928;-78
2021/12/04 01:27:14;;;;;;;;;;;1.70;99.90;;;;;;5082144;28;19968;-79
2021/12/04 01:29:41;;;;;;;;;;;1.80;99.90;;;;;;5079879;28;19931;-79
2021/12/04 01:32:09;;;;;;;;;;;1.70;99.90;;;;;;5085033;28;19962;-79
2021/12/04 01:34:35;;;;;;;;;;;1.60;99.90;;;;;;5078313;28;20023;-79
2021/12/04 01:37:02;;;;;;;;;;;1.70;99.90;;;;;;5076767;28;19970;-78
2021/12/04 01:39:28;;;;;;;;;;;1.40;99.90;;;;;;5076223;28;19966;-79
2021/12/04 01:41:55;;;;;;;;;;;1.70;99.90;;;;;;5075968;28;19925;-79
2021/12/04 01:44:21;;;;;;;;;;;1.70;99.90;;;;;;5089330;28;19924;-78
2021/12/04 01:46:55;;;;;;;;;;;1.70;99.90;;;;;;5089752;28;19924;-78
2021/12/04 01:49:21;;;;;;;;;;;1.80;99.90;;;;;;5089991;28;19991;-78
2021/12/04 01:51:48;;;;;;;;;;;1.60;99.90;;;;;;5079064;28;19959;-79
2021/12/04 01:54:14;;;;;;;;;;;1.70;99.90;;;;;;5075746;28;19960;-80
2021/12/04 01:56:41;;;;;;;;;;;1.70;99.90;;;;;;5075978;28;19975;-80
2021/12/04 01:59:08;;;;;;;;;;;1.70;99.90;;;;;;5075841;28;19924;-79
2021/12/04 02:01:35;;;;;;;;;;;1.70;99.90;;;;;;5076496;28;19924;-79
2021/12/04 02:04:04;;;;;;;;;;;1.30;99.90;;;;;;5076276;28;19929;-79
2021/12/04 02:06:30;;;;;;;;;;;1.20;99.90;;;;;;5080137;28;20330;-79
2021/12/04 02:08:57;;;;;;;;;;;1.70;99.90;;;;;;5080072;28;19924;-79
2021/12/04 02:11:23;;;;;;;;;;;1.80;99.90;;;;;;5081749;28;19925;-78
2021/12/04 02:13:50;;;;;;;;;;;1.80;99.90;;;;;;5088704;28;19964;-77
2021/12/04 02:16:16;;;;;;;;;;;1.60;99.90;;;;;;5090899;28;19983;-77
2021/12/04 02:18:43;;;;;;;;;;;2.30;99.90;;;;;;5084269;28;19932;-79
2021/12/04 02:21:11;;;;;;;;;;;1.70;99.90;;;;;;5079741;28;20440;-79
2021/12/04 02:23:37;;;;;;;;;;;1.80;99.90;;;;;;5079428;28;19974;-78
2021/12/04 02:26:04;;;;;;;;;;;1.80;99.90;;;;;;5081269;28;20027;-78
2021/12/04 02:28:30;;;;;;;;;;;1.70;99.90;;;;;;5079968;28;19932;-79
2021/12/04 02:30:57;;;;;;;;;;;1.70;99.90;;;;;;5084235;28;20332;-78
2021/12/04 02:33:23;;;;;;;;;;;1.80;99.90;;;;;;5084384;28;20314;-78
2021/12/04 02:35:51;;;;;;;;;;;1.60;99.90;;;;;;5086696;28;19939;-78
2021/12/04 02:38:22;;;;;;;;;;;1.80;99.90;;;;;;5081630;28;20272;-79
2021/12/04 02:40:50;;;;;;;;;;;2.40;99.90;;;;;;5080529;28;19925;-79
2021/12/04 02:43:16;;;;;;;;;;;1.90;99.90;;;;;;5079157;28;19967;-79
2021/12/04 02:45:43;;;;;;;;;;;1.80;99.90;;;;;;5079664;28;19925;-80
2021/12/04 02:48:10;;;;;;;;;;;1.90;99.90;;;;;;5079359;28;19950;-79
2021/12/04 02:50:37;;;;;;;;;;;1.70;99.90;;;;;;5087313;28;19947;-79
2021/12/04 02:53:03;;;;;;;;;;;1.80;99.90;;;;;;5081629;28;19964;-79
2021/12/04 02:55:31;;;;;;;;;;;1.80;99.90;;;;;;5080441;28;19971;-79
2021/12/04 02:57:57;;;;;;;;;;;1.70;99.90;;;;;;5079880;28;19924;-78
2021/12/04 03:00:25;;;;;;;;;;;1.80;99.90;;;;;;5083822;28;19978;-78
2021/12/04 03:02:52;;;;;;;;;;;1.80;99.90;;;;;;5091074;28;19925;-79
2021/12/04 03:05:23;;;;;;;;;;;2.20;99.90;;;;;;5090706;28;19924;-78
2021/12/04 03:07:50;;;;;;;;;;;1.60;99.90;;;;;;5084988;28;19931;-78
2021/12/04 03:10:16;;;;;;;;;;;1.90;99.90;;;;;;5082127;28;19944;-78
2021/12/04 03:12:44;;;;;;;;;;;1.90;99.90;;;;;;5080583;28;20016;-79
2021/12/04 03:15:11;;;;;;;;;;;1.60;99.90;;;;;;5079015;28;19925;-78
2021/12/04 03:17:37;;;;;;;;;;;2.30;99.90;;;;;;5081122;28;19935;-78
2021/12/04 03:20:04;;;;;;;;;;;1.70;99.90;;;;;;5084247;28;19925;-79
2021/12/04 03:22:31;;;;;;;;;;;1.80;99.90;;;;;;5082619;28;19947;-78
2021/12/04 03:24:58;;;;;;;;;;;2.00;99.90;;;;;;5089129;28;19925;-78
2021/12/04 03:27:27;;;;;;;;;;;1.80;99.90;;;;;;5092022;28;19925;-77
2021/12/04 03:29:57;;;;;;;;;;;1.70;99.90;;;;;;5091152;28;19962;-77
2021/12/04 03:32:50;;;;;;;;;;;1.80;99.90;;;;;;5086644;28;20015;-79
2021/12/04 03:35:26;;;;;;;;;;;1.60;99.90;;;;;;5084495;28;19925;-77
2021/12/04 03:40:50;;;;;;;;;;;1.70;99.90;;;;;;5085036;28;19926;-78
2021/12/04 03:43:16;;;;;;;;;;;1.80;99.90;;;;;;5077881;28;19928;-79
2021/12/04 03:45:46;;;;;;;;;;;1.80;99.90;;;;;;5078015;28;20266;-79
2021/12/04 03:48:28;;;;;;;;;;;1.70;99.90;;;;;;5081677;28;19925;-78
2021/12/04 03:50:54;;;;;;;;;;;1.70;99.90;;;;;;5081001;28;20028;-78
2021/12/04 03:53:21;;;;;;;;;;;1.90;99.90;;;;;;5077007;28;20019;-78
2021/12/04 03:55:48;;;;;;;;;;;1.90;99.90;;;;;;5078774;28;19924;-78
2021/12/04 03:58:14;;;;;;;;;;;1.80;99.90;;;;;;5077494;28;20294;-78
2021/12/04 04:00:41;;;;;;;;;;;1.80;99.90;;;;;;5077129;28;19925;-80
2021/12/04 04:03:09;;;;;;;;;;;1.90;99.90;;;;;;5085386;28;20337;-77
2021/12/04 04:05:35;;;;;;;;;;;1.80;99.90;;;;;;5086706;28;19932;-77
2021/12/04 04:08:02;;;;;;;;;;;1.80;99.90;;;;;;5088506;28;19931;-77
2021/12/04 04:10:28;;;;;;;;;;;1.80;99.90;;;;;;5086720;28;19924;-76
2021/12/04 04:12:55;;;;;;;;;;;1.80;99.90;;;;;;5087695;28;19924;-76
2021/12/04 04:15:22;;;;;;;;;;;1.80;99.90;;;;;;5083524;28;19931;-80
2021/12/04 04:17:49;;;;;;;;;;;1.50;99.90;;;;;;5085340;28;19928;-78
2021/12/04 04:20:18;;;;;;;;;;;1.90;99.90;;;;;;5088868;28;19924;-77
2021/12/04 04:22:45;;;;;;;;;;;2.00;99.90;;;;;;5088553;28;19948;-79
2021/12/04 04:25:12;;;;;;;;;;;1.70;99.90;;;;;;5080200;28;19932;-78
2021/12/04 04:27:39;;;;;;;;;;;1.60;99.90;;;;;;5076359;28;19964;-78
2021/12/04 04:30:07;;;;;;;;;;;1.70;99.90;;;;;;5075456;28;20433;-80
2021/12/04 04:32:34;;;;;;;;;;;1.90;99.90;;;;;;5076235;28;19929;-78
2021/12/04 04:35:08;;;;;;;;;;;1.80;99.90;;;;;;5076332;28;19932;-79
2021/12/04 04:37:41;;;;;;;;;;;0.80;99.90;;;;;;5077655;28;19925;-79
2021/12/04 04:59:33;;;;;;;;;;;1.90;99.90;;;;;;5037107;28;20015;-79
2021/12/04 05:02:17;;;;;;;;;;;1.90;99.90;;;;;;5076064;28;19924;-79
2021/12/04 05:10:36;;;;;;;;;;;2.00;99.90;;;;;;5086714;28;20073;-78
2021/12/04 05:13:05;;;;;;;;;;;1.80;99.90;;;;;;5090350;28;19925;-78
2021/12/04 05:15:37;;;;;;;;;;;1.70;99.90;;;;;;5090646;28;19932;-77
2021/12/04 05:18:15;;;;;;;;;;;1.70;99.90;;;;;;5091474;28;19925;-78
2021/12/04 05:20:47;;;;;;;;;;;2.00;99.90;;;;;;5092423;28;19925;-77
2021/12/04 05:23:14;;;;;;;;;;;1.90;99.90;;;;;;5093810;28;19935;-77
2021/12/04 05:25:42;;;;;;;;;;;1.80;99.90;;;;;;5080356;28;19925;-78
2021/12/04 05:28:08;;;;;;;;;;;1.70;99.90;;;;;;5082605;28;20395;-78
2021/12/04 05:30:35;;;;;;;;;;;0.70;99.90;;;;;;5080570;28;19925;-79
2021/12/04 05:33:02;;;;;;;;;;;1.90;99.90;;;;;;5076966;28;19976;-78
2021/12/04 05:35:29;;;;;;;;;;;1.90;99.90;;;;;;5079042;28;19925;-78
2021/12/04 05:37:56;;;;;;;;;;;1.80;99.90;;;;;;5085733;28;19925;-78
2021/12/04 05:40:22;;;;;;;;;;;1.90;99.90;;;;;;5090106;28;19925;-77
2021/12/04 05:42:59;;;;;;;;;;;1.90;99.90;;;;;;5090597;28;19925;-77
2021/12/04 05:45:26;;;;;;;;;;;1.80;99.90;;;;;;5086775;28;19924;-79
2021/12/04 05:47:58;;;;;;;;;;;1.90;99.90;;;;;;5081893;28;19924;-78
2021/12/04 05:50:39;;;;;;;;;;;1.90;99.90;;;;;;5063644;28;19968;-79
2021/12/04 05:53:17;;;;;;;;;;;2.00;99.90;;;;;;5076069;28;19925;-79
2021/12/04 05:55:52;;;;;;;;;;;1.30;99.90;;;;;;5075410;28;19931;-79
2021/12/04 05:58:21;;;;;;;;;;;2.00;99.90;;;;;;5076090;28;20345;-79
2021/12/04 06:00:47;;;;;;;;;;;2.00;99.90;;;;;;5076235;28;19928;-79
2021/12/04 06:03:14;;;;;;;;;;;1.80;99.90;;;;;;5075118;28;20353;-78
2021/12/04 06:05:40;;;;;;;;;;;1.80;99.90;;;;;;5075483;28;19976;-78
2021/12/04 06:08:07;;;;;;;;;;;1.90;99.90;;;;;;5074511;28;20065;-78
2021/12/04 06:10:33;;;;;;;;;;;1.90;99.90;;;;;;5074485;28;20386;-78
2021/12/04 06:13:00;;;;;;;;;;;1.90;99.90;;;;;;5074930;28;19924;-79
2021/12/04 06:15:28;;;;;;;;;;;1.80;99.90;;;;;;5080836;28;19924;-78
2021/12/04 06:17:55;;;;;;;;;;;1.70;99.90;;;;;;5090187;28;19924;-77
2021/12/04 06:23:06;;;;;;;;;;;1.90;99.90;;;;;;5085744;28;19927;-79
2021/12/04 06:25:33;;;;;;;;;;;1.90;99.90;;;;;;5082347;28;19924;-78
2021/12/04 06:27:59;;;;;;;;;;;1.90;99.90;;;;;;5081367;28;19924;-78
2021/12/04 06:30:26;;;;;;;;;;;1.80;99.90;;;;;;5083069;28;19925;-77
2021/12/04 06:32:55;;;;;;;;;;;1.90;99.90;;;;;;5084511;28;19925;-77
2021/12/04 06:35:23;;;;;;;;;;;1.90;99.90;;;;;;5081395;28;19924;-77
2021/12/04 06:37:49;;;;;;;;;;;1.90;99.90;;;;;;5077163;28;19985;-78
2021/12/04 06:40:17;;;;;;;;;;;1.90;99.90;;;;;;5075976;28;19925;-79
2021/12/04 06:42:44;;;;;;;;;;;1.80;99.90;;;;;;5119370;22;19946;-82
2021/12/04 06:45:12;;;;;;;;;;;1.20;99.90;;;;;;5090020;28;19932;-80
2021/12/04 06:47:47;;;;;;;;;;;1.70;99.90;;;;;;5093416;28;19924;-81
2021/12/04 06:50:20;;;;;;;;;;;1.90;99.90;;;;;;5097565;28;19935;-79
2021/12/04 06:52:48;;;;;;;;;;;1.80;99.90;;;;;;5100387;28;19970;-81
2021/12/04 06:55:16;;;;;;;;;;;1.90;99.90;;;;;;5101376;28;19915;-81
2021/12/04 06:57:44;;;;;;;;;;;2.00;99.90;;;;;;5101257;28;19938;-80
2021/12/04 07:00:11;;;;;;;;;;;2.20;99.90;;;;;;5101227;28;19972;-82
2021/12/04 07:02:38;;;;;;;;;;;2.00;99.90;;;;;;5098280;28;20411;-81
2021/12/04 07:05:05;;;;;;;;;;;1.90;99.90;;;;;;5089367;28;19932;-80
2021/12/04 07:07:33;;;;;;;;;;;2.00;99.90;;;;;;5087665;28;19947;-81
2021/12/04 07:09:59;;;;;;;;;;;1.90;99.90;;;;;;5086812;28;19924;-82
2021/12/04 07:12:26;;;;;;;;;;;2.00;99.90;;;;;;5089056;28;19935;-82
2021/12/04 07:14:52;;;;;;;;;;;2.00;99.90;;;;;;5087572;28;19925;-82
2021/12/04 07:17:19;;;;;;;;;;;1.90;99.90;;;;;;5089248;28;19947;-81
2021/12/04 07:19:45;;;;;;;;;;;2.00;99.90;;;;;;5088083;28;19925;-80
2021/12/04 07:22:12;;;;;;;;;;;2.00;99.90;;;;;;5086308;28;19924;-81
2021/12/04 07:24:40;;;;;;;;;;;2.20;99.90;;;;;;5087979;28;19924;-81
2021/12/04 07:27:07;;;;;;;;;;;2.00;99.90;;;;;;5085251;28;19925;-80
2021/12/04 07:29:34;;;;;;;;;;;2.00;99.90;;;;;;5087200;28;19934;-81
2021/12/04 07:32:00;;;;;;;;;;;2.00;99.90;;;;;;5088517;28;20011;-81
2021/12/04 07:34:27;;;;;;;;;;;2.00;99.90;;;;;;5087495;28;19935;-82
2021/12/04 07:36:54;;;;;;;;;;;2.00;99.90;;;;;;5087977;28;19963;-81
2021/12/04 07:39:20;;;;;;;;;;;2.10;99.90;;;;;;5081141;28;19932;-82
2021/12/04 07:41:48;;;;;;;;;;;1.80;99.90;;;;;;5079067;28;19924;-81
2021/12/04 07:44:14;;;;;;;;;;;2.10;99.90;;;;;;5079116;28;19978;-81
2021/12/04 07:46:41;;;;;;;;;;;2.30;99.90;;;;;;5079290;28;19976;-81
2021/12/04 07:49:08;;;;;;;;;;;2.00;99.90;;;;;;5081020;28;19924;-82
2021/12/04 07:51:34;;;;;;;;;;;2.00;99.90;;;;;;5081516;28;19924;-81
2021/12/04 07:54:01;;;;;;;;;;;2.20;99.90;;;;;;5093888;28;19916;-82
2021/12/04 07:56:27;;;;;;;;;;;2.10;99.90;;;;;;5097517;28;19924;-82
2021/12/04 07:58:55;;;;;;;;;;;2.00;99.90;;;;;;5098514;28;19935;-83
2021/12/04 08:01:22;;;;;;;;;;;2.00;99.90;;;;;;5098109;28;19955;-82
2021/12/04 08:03:48;;;;;;;;;;;2.20;99.90;;;;;;5099167;28;19924;-81
2021/12/04 08:06:15;;;;;;;;;;;2.10;99.90;;;;;;5097898;28;19924;-81
2021/12/04 08:08:41;;;;;;;;;;;2.10;99.90;;;;;;5099741;28;19934;-81
2021/12/04 08:11:08;;;;;;;;;;;2.20;99.90;;;;;;5099487;28;19951;-81
2021/12/04 08:13:34;;;;;;;;;;;2.30;99.90;;;;;;5090072;28;19925;-83
2021/12/04 08:16:02;;;;;;;;;;;2.10;99.90;;;;;;5084105;28;19925;-82
2021/12/04 08:18:29;;;;;;;;;;;1.90;99.90;;;;;;5086868;28;19931;-82
2021/12/04 08:20:55;;;;;;;;;;;2.20;99.90;;;;;;5096025;28;19931;-82
2021/12/04 08:23:22;;;;;;;;;;;2.30;99.90;;;;;;5094015;28;19933;-78
2021/12/04 08:25:48;;;;;;;;;;;2.30;99.90;;;;;;5093470;28;19925;-83
2021/12/04 08:28:15;;;;;;;;;;;2.30;99.90;;;;;;5081218;28;19978;-81
2021/12/04 08:30:42;;;;;;;;;;;2.40;99.90;;;;;;5080433;28;19968;-80
2021/12/04 08:33:10;;;;;;;;;;;2.50;99.90;;;;;;5080697;28;20271;-82
2021/12/04 08:35:39;;;;;;;;;;;2.40;99.90;;;;;;5081769;28;19924;-82
2021/12/04 08:38:07;;;;;;;;;;;2.10;99.90;;;;;;5081668;28;19974;-82
2021/12/04 08:40:33;;;;;;;;;;;2.30;99.90;;;;;;5080680;28;19958;-82
2021/12/04 08:43:00;;;;;;;;;;;2.30;99.90;;;;;;5081402;28;19968;-82
2021/12/04 08:45:27;;;;;;;;;;;2.40;99.90;;;;;;5081349;28;19924;-82
2021/12/04 08:47:54;;;;;;;;;;;2.50;99.90;;;;;;5083019;28;20391;-82
2021/12/04 08:50:23;;;;;;;;;;;2.40;99.90;;;;;;5085748;28;20406;-82
2021/12/04 08:52:49;;;;;;;;;;;2.50;99.90;;;;;;5085203;28;19924;-82
2021/12/04 08:55:17;;;;;;;;;;;3.10;99.90;;;;;;5081639;28;20441;-82
2021/12/04 08:57:43;;;;;;;;;;;2.50;99.90;;;;;;5081479;28;20364;-81
2021/12/04 09:00:12;;;;;;;;;;;2.50;99.90;;;;;;5081355;28;19931;-82
2021/12/04 09:02:38;;;;;;;;;;;2.60;99.90;;;;;;5066055;28;19925;-81
2021/12/04 09:05:06;;;;;;;;;;;2.50;99.90;;;;;;5082614;28;20279;-82
2021/12/04 09:07:34;;;;;;;;;;;2.60;99.90;;;;;;5083461;28;19946;-82
2021/12/04 09:10:00;;;;;;;;;;;2.70;99.90;;;;;;5080276;28;19990;-82
2021/12/04 09:12:28;;;;;;;;;;;2.50;99.90;;;;;;5080567;28;19982;-82
2021/12/04 09:14:56;;;;;;;;;;;2.50;99.90;;;;;;5079836;28;19947;-82
2021/12/04 09:17:23;;;;;;;;;;;2.50;99.90;;;;;;5079542;28;19931;-82
2021/12/04 09:19:50;;;;;;;;;;;2.40;99.90;;;;;;5081680;28;20026;-80
2021/12/04 09:22:24;;;;;;;;;;;2.60;99.90;;;;;;5080702;28;20355;-82
2021/12/04 09:24:55;;;;;;;;;;;1.80;99.90;;;;;;5089705;28;19964;-79
2021/12/04 09:27:34;;;;;;;;;;;2.10;99.90;;;;;;5091633;28;19924;-79
2021/12/04 09:30:09;;;;;;;;;;;2.40;99.90;;;;;;5089229;28;19935;-80
2021/12/04 09:32:55;;;;;;;;;;;2.40;99.90;;;;;;5083785;28;19924;-81
2021/12/04 09:35:58;;;;;;;;;;;2.30;99.90;;;;;;5081734;28;19925;-81
2021/12/04 10:00:40;;;;;;;;;;;2.80;99.90;;;;;;5080173;28;20015;-81
2021/12/04 10:06:29;;;;;;;;;;;2.60;99.90;;;;;;5079455;28;19947;-80
2021/12/04 10:15:17;;;;;;;;;;;2.60;99.90;;;;;;5085124;28;20023;-82
2021/12/04 10:18:05;;;;;;;;;;;2.60;99.90;;;;;;5092652;28;19924;-80
2021/12/04 10:20:40;;;;;;;;;;;2.50;99.90;;;;;;5093244;28;19920;-79
2021/12/04 10:23:23;;;;;;;;;;;2.60;99.90;;;;;;5093714;28;19925;-81
2021/12/04 10:34:10;;;;;;;;;;;2.70;99.90;;;;;;5084415;28;19935;-81
2021/12/04 10:36:39;;;;;;;;;;;2.70;99.90;;;;;;5085456;28;20245;-82
2021/12/04 10:39:08;;;;;;;;;;;2.90;99.90;;;;;;5083613;28;19925;-82
2021/12/04 10:41:37;;;;;;;;;;;2.80;99.90;;;;;;5084655;28;19924;-80
2021/12/04 10:44:15;;;;;;;;;;;2.80;99.90;;;;;;5084344;28;19967;-83
2021/12/04 10:46:54;;;;;;;;;;;2.80;99.90;;;;;;5084778;28;19924;-82
2021/12/04 10:49:30;;;;;;;;;;;2.60;99.90;;;;;;5082708;28;19928;-82
2021/12/04 10:52:02;;;;;;;;;;;2.80;99.90;;;;;;5083584;28;19930;-82
2021/12/04 10:54:33;;;;;;;;;;;2.80;99.90;;;;;;5091416;28;19928;-81
2021/12/04 10:57:30;;;;;;;;;;;2.60;99.90;;;;;;5085989;28;19924;-82
2021/12/04 11:00:02;;;;;;;;;;;2.80;99.90;;;;;;5082830;28;20011;-80
2021/12/04 11:02:36;;;;;;;;;;;2.90;99.90;;;;;;5082745;28;19979;-83
2021/12/04 11:05:15;;;;;;;;;;;2.60;99.90;;;;;;5083043;28;19967;-82
2021/12/04 11:18:36;;;;;;;;;;;2.70;99.90;;;;;;5083223;28;19925;-83
2021/12/04 11:19:26;;;;;;;;;;;2.90;99.90;;;;;;5090992;28;19997;-82
2021/12/04 11:22:05;;;;;;;;;;;2.90;99.90;;;;;;5099879;28;19908;-82
2021/12/04 11:27:52;;;;;;;;;;;2.70;99.90;;;;;;5091415;28;19916;-81
2021/12/04 11:36:15;;;;;;;;;;;2.60;99.90;;;;;;5097615;28;19949;-81
2021/12/04 11:38:46;;;;;;;;;;;2.70;99.90;;;;;;5095239;28;19929;-82
2021/12/04 11:41:26;;;;;;;;;;;3.30;99.90;;;;;;5087063;28;19932;-82
2021/12/04 11:43:58;;;;;;;;;;;3.20;99.90;;;;;;5084160;28;19925;-83
2021/12/04 11:46:29;;;;;;;;;;;2.90;99.90;;;;;;5084414;28;19925;-80
2021/12/04 11:48:59;;;;;;;;;;;3.10;99.90;;;;;;5082885;28;20434;-80
2021/12/04 11:51:27;;;;;;;;;;;3.00;99.90;;;;;;5082669;28;19925;-80
2021/12/04 11:53:55;;;;;;;;;;;3.10;99.90;;;;;;5081608;28;19986;-80
2021/12/04 11:56:23;;;;;;;;;;;3.10;99.90;;;;;;5084058;28;19964;-81
2021/12/04 11:58:50;;;;;;;;;;;3.10;99.90;;;;;;5082827;28;20275;-81
2021/12/04 12:01:21;;;;;;;;;;;3.20;99.90;;;;;;5082233;28;19952;-81
2021/12/04 12:03:50;;;;;;;;;;;3.20;99.90;;;;;;5080673;28;19925;-81
2021/12/04 12:06:17;;;;;;;;;;;3.20;99.90;;;;;;5085667;28;19947;-79
2021/12/04 12:08:45;;;;;;;;;;;3.10;99.90;;;;;;5090402;28;19951;-81
2021/12/04 12:11:13;;;;;;;;;;;3.20;99.90;;;;;;5084498;28;19924;-83
2021/12/04 12:13:41;;;;;;;;;;;3.20;99.90;;;;;;5095073;28;19951;-83
2021/12/04 12:16:09;;;;;;;;;;;3.20;99.90;;;;;;5095553;28;19935;-80
2021/12/04 12:18:49;;;;;;;;;;;3.20;99.90;;;;;;5089394;28;19931;-80
2021/12/04 12:21:19;;;;;;;;;;;3.20;99.90;;;;;;5086746;28;20015;-80
2021/12/04 12:26:50;;;;;;;;;;;3.20;99.90;;;;;;5090767;28;19978;-81
2021/12/04 12:32:38;;;;;;;;;;;3.20;99.90;;;;;;5098685;28;19951;-81
2021/12/04 12:37:58;;;;;;;;;;;3.20;99.90;;;;;;5070546;28;19920;-80
2021/12/04 12:40:29;;;;;;;;;;;3.40;99.90;;;;;;5087318;28;19971;-83
2021/12/04 12:42:55;;;;;;;;;;;3.20;99.90;;;;;;5110081;22;19925;-77
2021/12/04 12:45:23;;;;;;;;;;;1.90;99.90;;;;;;5080500;28;20387;-78
2021/12/04 12:47:50;;;;;;;;;;;3.30;99.90;;;;;;5077192;28;20403;-78
2021/12/04 12:50:27;;;;;;;;;;;3.20;99.90;;;;;;5075997;28;19991;-77
2021/12/04 12:53:00;;;;;;;;;;;3.30;99.90;;;;;;5075563;28;19928;-78
2021/12/04 12:55:31;;;;;;;;;;;3.40;99.90;;;;;;5075705;28;19972;-78
2021/12/04 12:58:11;;;;;;;;;;;3.40;99.90;;;;;;5075271;28;19924;-78
2021/12/04 13:11:56;;;;;;;;;;;3.00;99.90;;;;;;5013364;28;19921;-78
2021/12/04 13:14:25;;;;;;;;;;;3.20;99.90;;;;;;5063293;28;19931;-78
2021/12/04 13:16:53;;;;;;;;;;;3.10;99.90;;;;;;5074892;28;19924;-77
2021/12/04 13:19:21;;;;;;;;;;;3.30;99.90;;;;;;5074992;28;19924;-78
2021/12/04 13:21:50;;;;;;;;;;;3.30;99.90;;;;;;5076280;28;19924;-77
2021/12/04 13:24:17;;;;;;;;;;;3.30;99.90;;;;;;5077709;28;20020;-77
2021/12/04 13:26:45;;;;;;;;;;;3.20;99.90;;;;;;5075006;28;19972;-78
2021/12/04 13:29:12;;;;;;;;;;;3.40;99.90;;;;;;5076276;28;19931;-78
2021/12/04 13:31:40;;;;;;;;;;;3.00;99.90;;;;;;5076410;28;19924;-78
2021/12/04 13:34:07;;;;;;;;;;;3.30;99.90;;;;;;5075815;28;20335;-77
2021/12/04 13:36:34;;;;;;;;;;;3.00;99.90;;;;;;5076012;28;19964;-79
2021/12/04 13:39:02;;;;;;;;;;;3.20;99.90;;;;;;5074375;28;19924;-77
2021/12/04 13:41:29;;;;;;;;;;;3.00;99.90;;;;;;5074162;28;19948;-77
2021/12/04 13:43:57;;;;;;;;;;;3.20;99.90;;;;;;5073922;28;19924;-77
2021/12/04 13:46:24;;;;;;;;;;;3.20;99.90;;;;;;5074273;28;19928;-77
2021/12/04 13:48:52;;;;;;;;;;;3.60;99.90;;;;;;5073986;28;19924;-77
2021/12/04 13:51:19;;;;;;;;;;;2.90;99.90;;;;;;5073423;28;20015;-78
2021/12/04 13:53:46;;;;;;;;;;;3.20;99.90;;;;;;5073307;28;20361;-77
2021/12/04 13:56:15;;;;;;;;;;;3.10;99.90;;;;;;5073784;28;19978;-77
2021/12/04 13:58:46;;;;;;;;;;;2.80;99.90;;;;;;5073531;28;19964;-77
2021/12/04 14:01:12;;;;;;;;;;;3.20;99.90;;;;;;5075309;28;19928;-78
2021/12/04 14:03:39;;;;;;;;;;;3.10;99.90;;;;;;5077190;28;19924;-77
2021/12/04 14:06:11;;;;;;;;;;;2.90;99.90;;;;;;5078270;28;20310;-78
2021/12/04 14:08:37;;;;;;;;;;;3.00;99.90;;;;;;5079336;28;19924;-77
2021/12/04 14:11:04;;;;;;;;;;;2.80;99.90;;;;;;5078561;28;19970;-79
2021/12/04 14:13:30;;;;;;;;;;;3.10;99.90;;;;;;5078487;28;19967;-79
2021/12/04 14:15:57;;;;;;;;;;;3.10;99.90;;;;;;5078686;28;19968;-77
2021/12/04 14:18:24;;;;;;;;;;;3.00;99.90;;;;;;5078721;28;20011;-77
2021/12/04 14:20:53;;;;;;;;;;;2.80;99.90;;;;;;5077991;28;20370;-77
2021/12/04 14:23:23;;;;;;;;;;;2.90;99.90;;;;;;5078147;28;19924;-78
2021/12/04 14:25:54;;;;;;;;;;;2.80;99.90;;;;;;5078312;28;19924;-77
2021/12/04 14:28:22;;;;;;;;;;;2.50;99.90;;;;;;5077690;28;19928;-77
2021/12/04 14:30:49;;;;;;;;;;;2.70;99.90;;;;;;5078602;28;19931;-78
2021/12/04 14:33:19;;;;;;;;;;;2.90;99.90;;;;;;5078058;28;19924;-77
2021/12/04 14:35:47;;;;;;;;;;;3.20;99.90;;;;;;5077807;28;19924;-77
2021/12/04 14:38:14;;;;;;;;;;;2.80;99.90;;;;;;5077813;28;20310;-78
2021/12/04 14:40:43;;;;;;;;;;;2.50;99.90;;;;;;5077918;28;20062;-77
2021/12/04 14:43:10;;;;;;;;;;;2.90;99.90;;;;;;5077142;28;19931;-77
2021/12/04 14:45:38;;;;;;;;;;;2.70;99.90;;;;;;5077319;28;19946;-78
2021/12/04 14:48:05;;;;;;;;;;;2.80;99.90;;;;;;5076852;28;20448;-78
2021/12/04 14:50:32;;;;;;;;;;;2.90;99.90;;;;;;5077432;28;19985;-78
2021/12/04 14:53:00;;;;;;;;;;;3.00;99.90;;;;;;5077481;28;19963;-77
2021/12/04 14:55:28;;;;;;;;;;;2.70;99.90;;;;;;5077272;28;20284;-77
2021/12/04 14:58:19;;;;;;;;;;;2.80;99.90;;;;;;5077453;28;19956;-77
2021/12/04 15:00:46;;;;;;;;;;;2.80;99.90;;;;;;5078199;28;20007;-77
2021/12/04 15:03:14;;;;;;;;;;;2.70;99.90;;;;;;5077741;28;19987;-77
2021/12/04 15:05:42;;;;;;;;;;;2.60;99.90;;;;;;5077194;28;20454;-78
2021/12/04 15:08:10;;;;;;;;;;;2.50;99.90;;;;;;5076979;28;19966;-77
2021/12/04 15:10:37;;;;;;;;;;;2.60;99.90;;;;;;5077961;28;19924;-78
2021/12/04 15:13:05;;;;;;;;;;;2.70;99.90;;;;;;5076277;28;20391;-77
2021/12/04 15:15:34;;;;;;;;;;;2.70;99.90;;;;;;5077242;28;19925;-77
2021/12/04 15:18:03;;;;;;;;;;;2.70;99.90;;;;;;5078079;28;19924;-77
2021/12/04 15:20:31;;;;;;;;;;;3.00;99.90;;;;;;5077599;28;19932;-77
2021/12/04 15:22:59;;;;;;;;;;;2.70;99.90;;;;;;5077250;28;20015;-78
2021/12/04 15:25:30;;;;;;;;;;;2.40;99.90;;;;;;5076979;28;20402;-78
2021/12/04 15:27:57;;;;;;;;;;;2.50;99.90;;;;;;5076962;28;19930;-78
2021/12/04 15:30:25;;;;;;;;;;;2.70;99.90;;;;;;5077363;28;19984;-79
2021/12/04 15:32:53;;;;;;;;;;;2.70;99.90;;;;;;5086528;28;19975;-77
2021/12/04 15:35:27;;;;;;;;;;;2.70;99.90;;;;;;5087483;28;19984;-78
2021/12/04 15:38:00;;;;;;;;;;;2.70;99.90;;;;;;5073894;28;19925;-77
2021/12/04 15:40:31;;;;;;;;;;;2.60;99.90;;;;;;5093008;28;19932;-77
2021/12/04 15:43:07;;;;;;;;;;;2.60;99.90;;;;;;5093747;28;19925;-76
2021/12/04 15:45:43;;;;;;;;;;;2.30;99.90;;;;;;5092910;28;21540;-77
2021/12/04 15:51:18;;;;;;;;;;;2.70;99.90;;;;;;5075974;28;20120;-77
2021/12/04 15:53:51;;;;;;;;;;;2.60;99.90;;;;;;5076791;28;19925;-77
2021/12/04 15:56:28;;;;;;;;;;;2.60;99.90;;;;;;5077736;28;20298;-77
2021/12/04 15:58:55;;;;;;;;;;;2.50;99.90;;;;;;5076359;28;19960;-77
2021/12/04 16:01:26;;;;;;;;;;;2.60;99.90;;;;;;5076350;28;19924;-78
2021/12/04 16:03:54;;;;;;;;;;;2.50;99.90;;;;;;5076040;28;19975;-77
2021/12/04 16:06:20;;;;;;;;;;;2.50;99.90;;;;;;5076239;28;19924;-77
2021/12/04 16:08:47;;;;;;;;;;;2.50;99.90;;;;;;5076016;28;20378;-77
2021/12/04 16:11:14;;;;;;;;;;;2.60;99.90;;;;;;5075800;28;20425;-78
2021/12/04 16:13:43;;;;;;;;;;;2.60;99.90;;;;;;5075952;28;19932;-78
2021/12/04 16:16:11;;;;;;;;;;;2.50;99.90;;;;;;5075785;28;19971;-78
2021/12/04 16:18:37;;;;;;;;;;;2.50;99.90;;;;;;5075618;28;19963;-77
2021/12/04 16:21:06;;;;;;;;;;;2.50;99.90;;;;;;5075716;28;19964;-78
2021/12/04 16:23:33;;;;;;;;;;;2.60;99.90;;;;;;5075137;28;19928;-78
2021/12/04 16:26:00;;;;;;;;;;;2.50;99.90;;;;;;5075972;28;20331;-77
2021/12/04 16:28:46;;;;;;;;;;;2.50;99.90;;;;;;5075463;28;20347;-78
2021/12/04 16:31:27;;;;;;;;;;;2.50;99.90;;;;;;5075249;28;19925;-77
2021/12/04 16:34:04;;;;;;;;;;;2.50;99.90;;;;;;5075425;28;19963;-77
2021/12/04 16:36:41;;;;;;;;;;;2.50;99.90;;;;;;5074621;28;19931;-74
2021/12/04 16:39:10;;;;;;;;;;;2.50;99.90;;;;;;5074374;28;20391;-74
2021/12/04 16:41:37;;;;;;;;;;;2.60;99.90;;;;;;5074449;28;19924;-74
2021/12/04 16:44:05;;;;;;;;;;;2.50;99.90;;;;;;5074158;28;19958;-76
2021/12/04 16:46:35;;;;;;;;;;;2.60;99.90;;;;;;5074678;28;19928;-76